sensor_id;sensor_type;location;lat;lon;timestamp;P1;durP1;ratioP1;P2;durP2;ratioP2
61531;SDS011;47397;48.194;11.632;2023-07-31T00:00:52;6.85;;;1.77;;
61531;SDS011;47397;48.194;11.632;2023-07-31T00:01:54;5.45;;;2.10;;
61531;SDS011;47397;48.194;11.632;2023-07-31T00:02:55;3.58;;;1.83;;
61531;SDS011;47397;48.194;11.632;2023-07-31T00:03:55;6.70;;;1.80;;
61531;SDS011;47397;48.194;11.632;2023-07-31T00:04:56;4.30;;;1.95;;
61531;SDS011;47397;48.194;11.632;2023-07-31T00:05:56;3.70;;;1.90;;
61531;SDS011;47397;48.194;11.632;2023-07-31T00:06:56;3.70;;;1.80;;
61531;SDS011;47397;48.194;11.632;2023-07-31T00:07:57;4.25;;;2.20;;
61531;SDS011;47397;48.194;11.632;2023-07-31T00:08:57;6.13;;;1.95;;
61531;SDS011;47397;48.194;11.632;2023-07-31T00:09:58;4.75;;;1.80;;
61531;SDS011;47397;48.194;11.632;2023-07-31T00:10:59;6.13;;;1.85;;
61531;SDS011;47397;48.194;11.632;2023-07-31T00:12:00;4.88;;;1.90;;
61531;SDS011;47397;48.194;11.632;2023-07-31T00:13:00;4.90;;;1.95;;
61531;SDS011;47397;48.194;11.632;2023-07-31T00:14:01;4.47;;;2.30;;
61531;SDS011;47397;48.194;11.632;2023-07-31T00:15:01;4.55;;;1.92;;
61531;SDS011;47397;48.194;11.632;2023-07-31T00:16:02;4.95;;;1.90;;
61531;SDS011;47397;48.194;11.632;2023-07-31T00:17:02;3.33;;;1.92;;
61531;SDS011;47397;48.194;11.632;2023-07-31T00:18:03;5.20;;;1.85;;
61531;SDS011;47397;48.194;11.632;2023-07-31T00:19:04;4.72;;;2.10;;
61531;SDS011;47397;48.194;11.632;2023-07-31T00:20:04;4.70;;;2.20;;
61531;SDS011;47397;48.194;11.632;2023-07-31T00:21:05;4.05;;;1.90;;
61531;SDS011;47397;48.194;11.632;2023-07-31T00:22:06;4.20;;;2.00;;
61531;SDS011;47397;48.194;11.632;2023-07-31T00:23:06;4.72;;;2.30;;
61531;SDS011;47397;48.194;11.632;2023-07-31T00:24:06;4.28;;;1.95;;
61531;SDS011;47397;48.194;11.632;2023-07-31T00:25:07;5.57;;;2.08;;
61531;SDS011;47397;48.194;11.632;2023-07-31T00:26:09;4.65;;;2.13;;
61531;SDS011;47397;48.194;11.632;2023-07-31T00:27:09;4.50;;;1.80;;
61531;SDS011;47397;48.194;11.632;2023-07-31T00:28:10;4.75;;;1.85;;
61531;SDS011;47397;48.194;11.632;2023-07-31T00:29:10;5.65;;;1.90;;
61531;SDS011;47397;48.194;11.632;2023-07-31T00:30:11;4.40;;;2.17;;
61531;SDS011;47397;48.194;11.632;2023-07-31T00:31:11;5.80;;;2.10;;
61531;SDS011;47397;48.194;11.632;2023-07-31T00:32:12;5.50;;;2.08;;
61531;SDS011;47397;48.194;11.632;2023-07-31T00:33:12;5.90;;;1.98;;
61531;SDS011;47397;48.194;11.632;2023-07-31T00:34:13;3.83;;;2.08;;
61531;SDS011;47397;48.194;11.632;2023-07-31T00:35:13;5.97;;;2.00;;
61531;SDS011;47397;48.194;11.632;2023-07-31T00:36:14;3.90;;;2.05;;
61531;SDS011;47397;48.194;11.632;2023-07-31T00:37:14;3.05;;;2.03;;
61531;SDS011;47397;48.194;11.632;2023-07-31T00:38:15;6.18;;;2.03;;
61531;SDS011;47397;48.194;11.632;2023-07-31T00:39:15;6.78;;;2.05;;
61531;SDS011;47397;48.194;11.632;2023-07-31T00:40:15;4.45;;;1.98;;
61531;SDS011;47397;48.194;11.632;2023-07-31T00:41:17;5.03;;;2.20;;
61531;SDS011;47397;48.194;11.632;2023-07-31T00:42:18;3.97;;;2.10;;
61531;SDS011;47397;48.194;11.632;2023-07-31T00:43:18;4.38;;;2.00;;
61531;SDS011;47397;48.194;11.632;2023-07-31T00:44:18;8.95;;;2.33;;
61531;SDS011;47397;48.194;11.632;2023-07-31T00:45:19;4.22;;;2.30;;
61531;SDS011;47397;48.194;11.632;2023-07-31T00:46:19;4.57;;;2.05;;
61531;SDS011;47397;48.194;11.632;2023-07-31T00:47:20;3.53;;;1.70;;
61531;SDS011;47397;48.194;11.632;2023-07-31T00:48:21;8.82;;;2.15;;
61531;SDS011;47397;48.194;11.632;2023-07-31T00:49:22;6.05;;;2.17;;
61531;SDS011;47397;48.194;11.632;2023-07-31T00:50:23;4.10;;;2.10;;
61531;SDS011;47397;48.194;11.632;2023-07-31T00:51:24;4.40;;;1.98;;
61531;SDS011;47397;48.194;11.632;2023-07-31T00:52:25;5.22;;;1.73;;
61531;SDS011;47397;48.194;11.632;2023-07-31T00:53:25;4.88;;;1.92;;
61531;SDS011;47397;48.194;11.632;2023-07-31T00:54:25;4.93;;;1.77;;
61531;SDS011;47397;48.194;11.632;2023-07-31T00:55:26;4.15;;;1.80;;
61531;SDS011;47397;48.194;11.632;2023-07-31T00:56:28;3.20;;;1.95;;
61531;SDS011;47397;48.194;11.632;2023-07-31T00:57:28;4.45;;;1.80;;
61531;SDS011;47397;48.194;11.632;2023-07-31T00:58:30;4.82;;;2.13;;
61531;SDS011;47397;48.194;11.632;2023-07-31T00:59:31;4.97;;;1.77;;
61531;SDS011;47397;48.194;11.632;2023-07-31T01:00:31;4.78;;;1.95;;
61531;SDS011;47397;48.194;11.632;2023-07-31T01:01:31;4.85;;;2.20;;
61531;SDS011;47397;48.194;11.632;2023-07-31T01:02:32;3.63;;;1.80;;
61531;SDS011;47397;48.194;11.632;2023-07-31T01:03:32;5.45;;;2.03;;
61531;SDS011;47397;48.194;11.632;2023-07-31T01:04:34;6.15;;;2.30;;
61531;SDS011;47397;48.194;11.632;2023-07-31T01:05:36;4.63;;;2.25;;
61531;SDS011;47397;48.194;11.632;2023-07-31T01:06:44;5.15;;;1.90;;
61531;SDS011;47397;48.194;11.632;2023-07-31T01:07:52;4.32;;;1.95;;
61531;SDS011;47397;48.194;11.632;2023-07-31T01:08:58;3.65;;;2.20;;
61531;SDS011;47397;48.194;11.632;2023-07-31T01:10:02;8.57;;;2.28;;
61531;SDS011;47397;48.194;11.632;2023-07-31T01:11:09;4.32;;;2.00;;
61531;SDS011;47397;48.194;11.632;2023-07-31T01:12:16;3.70;;;1.77;;
61531;SDS011;47397;48.194;11.632;2023-07-31T01:13:17;4.55;;;2.10;;
61531;SDS011;47397;48.194;11.632;2023-07-31T01:14:18;4.53;;;2.10;;
61531;SDS011;47397;48.194;11.632;2023-07-31T01:15:18;6.28;;;2.20;;
61531;SDS011;47397;48.194;11.632;2023-07-31T01:16:19;7.28;;;2.15;;
61531;SDS011;47397;48.194;11.632;2023-07-31T01:17:20;3.72;;;2.10;;
61531;SDS011;47397;48.194;11.632;2023-07-31T01:18:20;4.10;;;1.90;;
61531;SDS011;47397;48.194;11.632;2023-07-31T01:19:23;3.47;;;2.20;;
61531;SDS011;47397;48.194;11.632;2023-07-31T01:20:25;5.22;;;1.95;;
61531;SDS011;47397;48.194;11.632;2023-07-31T01:21:41;3.40;;;2.20;;
61531;SDS011;47397;48.194;11.632;2023-07-31T01:23:01;3.78;;;2.00;;
61531;SDS011;47397;48.194;11.632;2023-07-31T01:24:22;5.95;;;2.08;;
61531;SDS011;47397;48.194;11.632;2023-07-31T01:27:02;6.68;;;2.25;;
61531;SDS011;47397;48.194;11.632;2023-07-31T01:28:07;4.25;;;2.28;;
61531;SDS011;47397;48.194;11.632;2023-07-31T01:29:14;5.70;;;2.20;;
61531;SDS011;47397;48.194;11.632;2023-07-31T01:30:21;5.82;;;2.28;;
61531;SDS011;47397;48.194;11.632;2023-07-31T01:31:25;5.57;;;2.38;;
61531;SDS011;47397;48.194;11.632;2023-07-31T01:32:28;3.35;;;2.03;;
61531;SDS011;47397;48.194;11.632;2023-07-31T01:33:29;5.05;;;2.33;;
61531;SDS011;47397;48.194;11.632;2023-07-31T01:34:30;6.53;;;2.55;;
61531;SDS011;47397;48.194;11.632;2023-07-31T01:35:32;4.15;;;2.30;;
61531;SDS011;47397;48.194;11.632;2023-07-31T01:36:33;4.57;;;1.95;;
61531;SDS011;47397;48.194;11.632;2023-07-31T01:37:33;3.83;;;1.95;;
61531;SDS011;47397;48.194;11.632;2023-07-31T01:38:34;4.82;;;2.10;;
61531;SDS011;47397;48.194;11.632;2023-07-31T01:39:34;3.70;;;2.05;;
61531;SDS011;47397;48.194;11.632;2023-07-31T01:40:40;3.00;;;2.13;;
61531;SDS011;47397;48.194;11.632;2023-07-31T01:41:41;4.95;;;1.95;;
61531;SDS011;47397;48.194;11.632;2023-07-31T01:42:43;4.40;;;2.17;;
61531;SDS011;47397;48.194;11.632;2023-07-31T01:43:44;5.82;;;2.20;;
61531;SDS011;47397;48.194;11.632;2023-07-31T01:44:44;4.30;;;2.03;;
61531;SDS011;47397;48.194;11.632;2023-07-31T01:45:45;5.93;;;2.42;;
61531;SDS011;47397;48.194;11.632;2023-07-31T01:46:45;4.03;;;2.17;;
61531;SDS011;47397;48.194;11.632;2023-07-31T01:47:46;5.25;;;2.17;;
61531;SDS011;47397;48.194;11.632;2023-07-31T01:48:46;4.97;;;2.38;;
61531;SDS011;47397;48.194;11.632;2023-07-31T01:49:46;5.85;;;2.35;;
61531;SDS011;47397;48.194;11.632;2023-07-31T01:50:47;4.40;;;2.08;;
61531;SDS011;47397;48.194;11.632;2023-07-31T01:51:47;4.43;;;2.10;;
61531;SDS011;47397;48.194;11.632;2023-07-31T01:52:48;4.03;;;2.25;;
61531;SDS011;47397;48.194;11.632;2023-07-31T01:53:48;4.07;;;2.08;;
61531;SDS011;47397;48.194;11.632;2023-07-31T01:54:48;6.57;;;2.45;;
61531;SDS011;47397;48.194;11.632;2023-07-31T01:55:49;4.55;;;2.38;;
61531;SDS011;47397;48.194;11.632;2023-07-31T01:56:49;4.18;;;2.03;;
61531;SDS011;47397;48.194;11.632;2023-07-31T01:57:51;7.18;;;2.55;;
61531;SDS011;47397;48.194;11.632;2023-07-31T01:58:52;3.60;;;2.00;;
61531;SDS011;47397;48.194;11.632;2023-07-31T01:59:52;3.97;;;2.05;;
61531;SDS011;47397;48.194;11.632;2023-07-31T02:00:52;5.78;;;2.47;;
61531;SDS011;47397;48.194;11.632;2023-07-31T02:01:53;4.55;;;2.10;;
61531;SDS011;47397;48.194;11.632;2023-07-31T02:02:53;3.80;;;2.40;;
61531;SDS011;47397;48.194;11.632;2023-07-31T02:03:54;7.68;;;2.65;;
61531;SDS011;47397;48.194;11.632;2023-07-31T02:04:54;4.97;;;2.17;;
61531;SDS011;47397;48.194;11.632;2023-07-31T02:05:55;6.50;;;2.10;;
61531;SDS011;47397;48.194;11.632;2023-07-31T02:06:55;5.22;;;2.53;;
61531;SDS011;47397;48.194;11.632;2023-07-31T02:07:55;5.07;;;2.45;;
61531;SDS011;47397;48.194;11.632;2023-07-31T02:08:56;4.32;;;2.38;;
61531;SDS011;47397;48.194;11.632;2023-07-31T02:09:56;4.57;;;2.10;;
61531;SDS011;47397;48.194;11.632;2023-07-31T02:10:57;5.88;;;2.13;;
61531;SDS011;47397;48.194;11.632;2023-07-31T02:11:57;5.40;;;2.40;;
61531;SDS011;47397;48.194;11.632;2023-07-31T02:12:59;3.50;;;2.10;;
61531;SDS011;47397;48.194;11.632;2023-07-31T02:13:59;4.15;;;2.33;;
61531;SDS011;47397;48.194;11.632;2023-07-31T02:15:00;5.30;;;2.40;;
61531;SDS011;47397;48.194;11.632;2023-07-31T02:16:00;4.95;;;2.50;;
61531;SDS011;47397;48.194;11.632;2023-07-31T02:17:01;4.47;;;2.47;;
61531;SDS011;47397;48.194;11.632;2023-07-31T02:18:01;4.15;;;2.05;;
61531;SDS011;47397;48.194;11.632;2023-07-31T02:19:01;5.85;;;2.47;;
61531;SDS011;47397;48.194;11.632;2023-07-31T02:20:02;4.28;;;2.25;;
61531;SDS011;47397;48.194;11.632;2023-07-31T02:21:03;5.20;;;2.20;;
61531;SDS011;47397;48.194;11.632;2023-07-31T02:22:03;5.60;;;2.50;;
61531;SDS011;47397;48.194;11.632;2023-07-31T02:23:04;4.63;;;2.42;;
61531;SDS011;47397;48.194;11.632;2023-07-31T02:24:05;3.78;;;2.20;;
61531;SDS011;47397;48.194;11.632;2023-07-31T02:25:06;5.90;;;2.30;;
61531;SDS011;47397;48.194;11.632;2023-07-31T02:26:06;6.72;;;2.47;;
61531;SDS011;47397;48.194;11.632;2023-07-31T02:27:07;4.70;;;2.60;;
61531;SDS011;47397;48.194;11.632;2023-07-31T02:28:09;3.85;;;2.15;;
61531;SDS011;47397;48.194;11.632;2023-07-31T02:29:09;4.05;;;2.10;;
61531;SDS011;47397;48.194;11.632;2023-07-31T02:30:10;4.30;;;1.98;;
61531;SDS011;47397;48.194;11.632;2023-07-31T02:31:11;5.78;;;2.35;;
61531;SDS011;47397;48.194;11.632;2023-07-31T02:32:11;3.40;;;2.30;;
61531;SDS011;47397;48.194;11.632;2023-07-31T02:33:12;4.30;;;2.20;;
61531;SDS011;47397;48.194;11.632;2023-07-31T02:34:12;4.32;;;2.50;;
61531;SDS011;47397;48.194;11.632;2023-07-31T02:35:13;5.63;;;2.25;;
61531;SDS011;47397;48.194;11.632;2023-07-31T02:36:13;7.18;;;2.42;;
61531;SDS011;47397;48.194;11.632;2023-07-31T02:37:13;5.32;;;2.13;;
61531;SDS011;47397;48.194;11.632;2023-07-31T02:38:14;5.63;;;2.20;;
61531;SDS011;47397;48.194;11.632;2023-07-31T02:39:14;5.25;;;2.08;;
61531;SDS011;47397;48.194;11.632;2023-07-31T02:40:15;3.83;;;2.10;;
61531;SDS011;47397;48.194;11.632;2023-07-31T02:41:15;6.68;;;2.42;;
61531;SDS011;47397;48.194;11.632;2023-07-31T02:42:16;5.55;;;2.45;;
61531;SDS011;47397;48.194;11.632;2023-07-31T02:43:17;6.18;;;2.22;;
61531;SDS011;47397;48.194;11.632;2023-07-31T02:44:18;5.00;;;2.67;;
61531;SDS011;47397;48.194;11.632;2023-07-31T02:45:18;5.20;;;2.22;;
61531;SDS011;47397;48.194;11.632;2023-07-31T02:46:19;7.22;;;2.33;;
61531;SDS011;47397;48.194;11.632;2023-07-31T02:47:19;5.47;;;2.38;;
61531;SDS011;47397;48.194;11.632;2023-07-31T02:48:20;6.05;;;2.70;;
61531;SDS011;47397;48.194;11.632;2023-07-31T02:49:20;6.20;;;2.30;;
61531;SDS011;47397;48.194;11.632;2023-07-31T02:50:21;7.13;;;2.85;;
61531;SDS011;47397;48.194;11.632;2023-07-31T02:51:21;4.13;;;2.35;;
61531;SDS011;47397;48.194;11.632;2023-07-31T02:52:22;6.60;;;2.42;;
61531;SDS011;47397;48.194;11.632;2023-07-31T02:53:22;3.53;;;2.25;;
61531;SDS011;47397;48.194;11.632;2023-07-31T02:54:22;7.82;;;2.65;;
61531;SDS011;47397;48.194;11.632;2023-07-31T02:55:23;4.72;;;2.40;;
61531;SDS011;47397;48.194;11.632;2023-07-31T02:56:23;5.43;;;2.35;;
61531;SDS011;47397;48.194;11.632;2023-07-31T02:57:24;6.93;;;2.40;;
61531;SDS011;47397;48.194;11.632;2023-07-31T02:58:25;5.60;;;2.60;;
61531;SDS011;47397;48.194;11.632;2023-07-31T02:59:27;7.28;;;2.38;;
61531;SDS011;47397;48.194;11.632;2023-07-31T03:00:28;7.38;;;2.70;;
61531;SDS011;47397;48.194;11.632;2023-07-31T03:01:28;9.10;;;2.95;;
61531;SDS011;47397;48.194;11.632;2023-07-31T03:02:29;6.43;;;2.63;;
61531;SDS011;47397;48.194;11.632;2023-07-31T03:03:29;10.57;;;2.72;;
61531;SDS011;47397;48.194;11.632;2023-07-31T03:04:29;8.38;;;3.53;;
61531;SDS011;47397;48.194;11.632;2023-07-31T03:05:30;7.80;;;2.50;;
61531;SDS011;47397;48.194;11.632;2023-07-31T03:06:30;11.38;;;3.22;;
61531;SDS011;47397;48.194;11.632;2023-07-31T03:07:31;5.82;;;2.63;;
61531;SDS011;47397;48.194;11.632;2023-07-31T03:08:31;11.00;;;2.97;;
61531;SDS011;47397;48.194;11.632;2023-07-31T03:09:31;8.90;;;2.83;;
61531;SDS011;47397;48.194;11.632;2023-07-31T03:10:32;7.82;;;2.72;;
61531;SDS011;47397;48.194;11.632;2023-07-31T03:11:32;4.38;;;2.60;;
61531;SDS011;47397;48.194;11.632;2023-07-31T03:12:33;8.43;;;2.53;;
61531;SDS011;47397;48.194;11.632;2023-07-31T03:13:34;6.53;;;2.78;;
61531;SDS011;47397;48.194;11.632;2023-07-31T03:14:35;5.65;;;2.55;;
61531;SDS011;47397;48.194;11.632;2023-07-31T03:15:35;9.02;;;2.80;;
61531;SDS011;47397;48.194;11.632;2023-07-31T03:16:36;9.88;;;2.78;;
61531;SDS011;47397;48.194;11.632;2023-07-31T03:17:36;7.25;;;2.65;;
61531;SDS011;47397;48.194;11.632;2023-07-31T03:18:36;5.20;;;2.50;;
61531;SDS011;47397;48.194;11.632;2023-07-31T03:19:37;6.65;;;2.42;;
61531;SDS011;47397;48.194;11.632;2023-07-31T03:20:37;8.35;;;2.90;;
61531;SDS011;47397;48.194;11.632;2023-07-31T03:21:42;3.95;;;2.30;;
61531;SDS011;47397;48.194;11.632;2023-07-31T03:22:42;5.35;;;2.58;;
61531;SDS011;47397;48.194;11.632;2023-07-31T03:23:43;6.35;;;2.28;;
61531;SDS011;47397;48.194;11.632;2023-07-31T03:24:43;7.15;;;2.42;;
61531;SDS011;47397;48.194;11.632;2023-07-31T03:25:54;3.47;;;2.50;;
61531;SDS011;47397;48.194;11.632;2023-07-31T03:26:55;5.32;;;2.35;;
61531;SDS011;47397;48.194;11.632;2023-07-31T03:27:56;9.68;;;2.58;;
61531;SDS011;47397;48.194;11.632;2023-07-31T03:28:57;5.40;;;2.42;;
61531;SDS011;47397;48.194;11.632;2023-07-31T03:29:58;5.60;;;2.45;;
61531;SDS011;47397;48.194;11.632;2023-07-31T03:30:59;4.22;;;2.30;;
61531;SDS011;47397;48.194;11.632;2023-07-31T03:31:59;4.63;;;2.67;;
61531;SDS011;47397;48.194;11.632;2023-07-31T03:33:00;8.05;;;2.70;;
61531;SDS011;47397;48.194;11.632;2023-07-31T03:34:00;11.57;;;2.80;;
61531;SDS011;47397;48.194;11.632;2023-07-31T03:35:01;13.43;;;3.00;;
61531;SDS011;47397;48.194;11.632;2023-07-31T03:36:01;7.10;;;3.28;;
61531;SDS011;47397;48.194;11.632;2023-07-31T03:37:02;14.38;;;3.20;;
61531;SDS011;47397;48.194;11.632;2023-07-31T03:38:02;9.50;;;3.10;;
61531;SDS011;47397;48.194;11.632;2023-07-31T03:39:03;7.28;;;2.53;;
61531;SDS011;47397;48.194;11.632;2023-07-31T03:40:03;13.38;;;3.80;;
61531;SDS011;47397;48.194;11.632;2023-07-31T03:41:04;7.20;;;2.65;;
61531;SDS011;47397;48.194;11.632;2023-07-31T03:42:05;11.23;;;3.28;;
61531;SDS011;47397;48.194;11.632;2023-07-31T03:43:06;8.48;;;2.70;;
61531;SDS011;47397;48.194;11.632;2023-07-31T03:44:08;7.65;;;2.75;;
61531;SDS011;47397;48.194;11.632;2023-07-31T03:45:09;8.13;;;2.47;;
61531;SDS011;47397;48.194;11.632;2023-07-31T03:46:10;6.10;;;2.58;;
61531;SDS011;47397;48.194;11.632;2023-07-31T03:47:10;7.00;;;2.90;;
61531;SDS011;47397;48.194;11.632;2023-07-31T03:48:11;8.35;;;3.10;;
61531;SDS011;47397;48.194;11.632;2023-07-31T03:49:11;6.20;;;2.65;;
61531;SDS011;47397;48.194;11.632;2023-07-31T03:50:11;9.23;;;3.03;;
61531;SDS011;47397;48.194;11.632;2023-07-31T03:51:12;7.55;;;2.80;;
61531;SDS011;47397;48.194;11.632;2023-07-31T03:52:12;5.25;;;2.83;;
61531;SDS011;47397;48.194;11.632;2023-07-31T03:53:13;8.35;;;3.30;;
61531;SDS011;47397;48.194;11.632;2023-07-31T03:54:13;9.18;;;2.95;;
61531;SDS011;47397;48.194;11.632;2023-07-31T03:55:14;4.57;;;2.25;;
61531;SDS011;47397;48.194;11.632;2023-07-31T03:56:14;8.35;;;2.92;;
61531;SDS011;47397;48.194;11.632;2023-07-31T03:57:14;7.07;;;2.50;;
61531;SDS011;47397;48.194;11.632;2023-07-31T03:58:15;8.30;;;3.15;;
61531;SDS011;47397;48.194;11.632;2023-07-31T03:59:16;6.70;;;2.70;;
61531;SDS011;47397;48.194;11.632;2023-07-31T04:00:17;6.03;;;2.47;;
61531;SDS011;47397;48.194;11.632;2023-07-31T04:01:18;5.57;;;2.42;;
61531;SDS011;47397;48.194;11.632;2023-07-31T04:02:19;8.80;;;2.72;;
61531;SDS011;47397;48.194;11.632;2023-07-31T04:03:20;7.80;;;2.95;;
61531;SDS011;47397;48.194;11.632;2023-07-31T04:04:20;4.68;;;2.50;;
61531;SDS011;47397;48.194;11.632;2023-07-31T04:05:20;7.80;;;2.65;;
61531;SDS011;47397;48.194;11.632;2023-07-31T04:06:21;7.95;;;2.72;;
61531;SDS011;47397;48.194;11.632;2023-07-31T04:07:21;6.20;;;2.38;;
61531;SDS011;47397;48.194;11.632;2023-07-31T04:08:22;4.82;;;2.60;;
61531;SDS011;47397;48.194;11.632;2023-07-31T04:09:22;5.15;;;2.50;;
61531;SDS011;47397;48.194;11.632;2023-07-31T04:10:23;7.22;;;2.88;;
61531;SDS011;47397;48.194;11.632;2023-07-31T04:11:23;6.63;;;2.90;;
61531;SDS011;47397;48.194;11.632;2023-07-31T04:12:24;6.20;;;2.72;;
61531;SDS011;47397;48.194;11.632;2023-07-31T04:13:24;6.72;;;2.88;;
61531;SDS011;47397;48.194;11.632;2023-07-31T04:14:26;7.63;;;2.80;;
61531;SDS011;47397;48.194;11.632;2023-07-31T04:15:26;8.65;;;2.67;;
61531;SDS011;47397;48.194;11.632;2023-07-31T04:16:27;6.13;;;2.58;;
61531;SDS011;47397;48.194;11.632;2023-07-31T04:17:27;4.72;;;2.58;;
61531;SDS011;47397;48.194;11.632;2023-07-31T04:18:27;5.40;;;2.70;;
61531;SDS011;47397;48.194;11.632;2023-07-31T04:19:28;8.00;;;2.83;;
61531;SDS011;47397;48.194;11.632;2023-07-31T04:20:28;4.85;;;2.50;;
61531;SDS011;47397;48.194;11.632;2023-07-31T04:21:29;5.78;;;2.72;;
61531;SDS011;47397;48.194;11.632;2023-07-31T04:22:29;4.88;;;2.67;;
61531;SDS011;47397;48.194;11.632;2023-07-31T04:23:29;4.82;;;2.58;;
61531;SDS011;47397;48.194;11.632;2023-07-31T04:24:30;6.78;;;2.80;;
61531;SDS011;47397;48.194;11.632;2023-07-31T04:25:30;6.40;;;2.88;;
61531;SDS011;47397;48.194;11.632;2023-07-31T04:26:31;4.80;;;2.70;;
61531;SDS011;47397;48.194;11.632;2023-07-31T04:27:31;6.28;;;2.58;;
61531;SDS011;47397;48.194;11.632;2023-07-31T04:28:31;7.22;;;2.80;;
61531;SDS011;47397;48.194;11.632;2023-07-31T04:29:33;9.73;;;2.95;;
61531;SDS011;47397;48.194;11.632;2023-07-31T04:30:34;8.93;;;2.80;;
61531;SDS011;47397;48.194;11.632;2023-07-31T04:31:34;7.15;;;3.22;;
61531;SDS011;47397;48.194;11.632;2023-07-31T04:32:34;5.35;;;2.67;;
61531;SDS011;47397;48.194;11.632;2023-07-31T04:33:35;3.67;;;2.58;;
61531;SDS011;47397;48.194;11.632;2023-07-31T04:34:35;7.32;;;2.97;;
61531;SDS011;47397;48.194;11.632;2023-07-31T04:35:36;5.75;;;2.72;;
61531;SDS011;47397;48.194;11.632;2023-07-31T04:36:36;8.38;;;3.22;;
61531;SDS011;47397;48.194;11.632;2023-07-31T04:37:37;5.40;;;2.67;;
61531;SDS011;47397;48.194;11.632;2023-07-31T04:38:37;5.38;;;2.60;;
61531;SDS011;47397;48.194;11.632;2023-07-31T04:39:39;4.30;;;2.63;;
61531;SDS011;47397;48.194;11.632;2023-07-31T04:40:39;6.47;;;2.60;;
61531;SDS011;47397;48.194;11.632;2023-07-31T04:41:40;6.32;;;3.03;;
61531;SDS011;47397;48.194;11.632;2023-07-31T04:42:40;6.03;;;2.75;;
61531;SDS011;47397;48.194;11.632;2023-07-31T04:43:40;4.32;;;2.50;;
61531;SDS011;47397;48.194;11.632;2023-07-31T04:44:42;5.30;;;2.75;;
61531;SDS011;47397;48.194;11.632;2023-07-31T04:45:44;6.85;;;2.92;;
61531;SDS011;47397;48.194;11.632;2023-07-31T04:46:45;4.78;;;2.80;;
61531;SDS011;47397;48.194;11.632;2023-07-31T04:47:45;7.72;;;2.75;;
61531;SDS011;47397;48.194;11.632;2023-07-31T04:48:46;6.13;;;3.00;;
61531;SDS011;47397;48.194;11.632;2023-07-31T04:49:46;3.92;;;2.90;;
61531;SDS011;47397;48.194;11.632;2023-07-31T04:50:47;5.80;;;2.80;;
61531;SDS011;47397;48.194;11.632;2023-07-31T04:51:47;4.35;;;2.72;;
61531;SDS011;47397;48.194;11.632;2023-07-31T04:52:48;5.53;;;2.92;;
61531;SDS011;47397;48.194;11.632;2023-07-31T04:53:48;5.18;;;2.60;;
61531;SDS011;47397;48.194;11.632;2023-07-31T04:54:48;5.15;;;2.72;;
61531;SDS011;47397;48.194;11.632;2023-07-31T04:55:49;6.25;;;2.90;;
61531;SDS011;47397;48.194;11.632;2023-07-31T04:56:49;10.18;;;3.30;;
61531;SDS011;47397;48.194;11.632;2023-07-31T04:57:50;5.32;;;2.60;;
61531;SDS011;47397;48.194;11.632;2023-07-31T04:58:50;5.43;;;2.60;;
61531;SDS011;47397;48.194;11.632;2023-07-31T04:59:52;5.75;;;2.65;;
61531;SDS011;47397;48.194;11.632;2023-07-31T05:00:52;5.05;;;2.40;;
61531;SDS011;47397;48.194;11.632;2023-07-31T05:01:52;4.03;;;2.60;;
61531;SDS011;47397;48.194;11.632;2023-07-31T05:02:53;4.28;;;2.60;;
61531;SDS011;47397;48.194;11.632;2023-07-31T05:03:53;4.13;;;2.67;;
61531;SDS011;47397;48.194;11.632;2023-07-31T05:04:54;5.28;;;2.83;;
61531;SDS011;47397;48.194;11.632;2023-07-31T05:05:54;4.55;;;2.40;;
61531;SDS011;47397;48.194;11.632;2023-07-31T05:06:54;4.60;;;2.40;;
61531;SDS011;47397;48.194;11.632;2023-07-31T05:07:55;6.13;;;2.72;;
61531;SDS011;47397;48.194;11.632;2023-07-31T05:08:55;9.60;;;2.78;;
61531;SDS011;47397;48.194;11.632;2023-07-31T05:09:55;5.63;;;2.70;;
61531;SDS011;47397;48.194;11.632;2023-07-31T05:10:56;4.47;;;2.85;;
61531;SDS011;47397;48.194;11.632;2023-07-31T05:11:56;3.92;;;2.50;;
61531;SDS011;47397;48.194;11.632;2023-07-31T05:12:57;6.22;;;2.67;;
61531;SDS011;47397;48.194;11.632;2023-07-31T05:13:57;4.00;;;2.78;;
61531;SDS011;47397;48.194;11.632;2023-07-31T05:14:59;4.07;;;2.85;;
61531;SDS011;47397;48.194;11.632;2023-07-31T05:15:59;3.67;;;2.80;;
61531;SDS011;47397;48.194;11.632;2023-07-31T05:17:00;4.65;;;2.85;;
61531;SDS011;47397;48.194;11.632;2023-07-31T05:18:00;5.68;;;2.60;;
61531;SDS011;47397;48.194;11.632;2023-07-31T05:19:01;4.25;;;2.80;;
61531;SDS011;47397;48.194;11.632;2023-07-31T05:20:10;4.75;;;2.47;;
61531;SDS011;47397;48.194;11.632;2023-07-31T05:21:11;5.40;;;2.75;;
61531;SDS011;47397;48.194;11.632;2023-07-31T05:22:12;4.22;;;2.70;;
61531;SDS011;47397;48.194;11.632;2023-07-31T05:23:12;6.43;;;2.88;;
61531;SDS011;47397;48.194;11.632;2023-07-31T05:24:12;4.90;;;2.85;;
61531;SDS011;47397;48.194;11.632;2023-07-31T05:25:13;7.40;;;3.30;;
61531;SDS011;47397;48.194;11.632;2023-07-31T05:26:14;4.40;;;2.72;;
61531;SDS011;47397;48.194;11.632;2023-07-31T05:27:14;4.78;;;2.60;;
61531;SDS011;47397;48.194;11.632;2023-07-31T05:28:14;4.47;;;3.00;;
61531;SDS011;47397;48.194;11.632;2023-07-31T05:29:15;4.75;;;2.63;;
61531;SDS011;47397;48.194;11.632;2023-07-31T05:30:17;5.20;;;2.97;;
61531;SDS011;47397;48.194;11.632;2023-07-31T05:31:17;4.60;;;2.65;;
61531;SDS011;47397;48.194;11.632;2023-07-31T05:32:17;5.60;;;2.65;;
61531;SDS011;47397;48.194;11.632;2023-07-31T05:33:18;5.30;;;2.80;;
61531;SDS011;47397;48.194;11.632;2023-07-31T05:34:18;4.25;;;2.70;;
61531;SDS011;47397;48.194;11.632;2023-07-31T05:35:19;4.18;;;2.67;;
61531;SDS011;47397;48.194;11.632;2023-07-31T05:36:19;4.63;;;2.80;;
61531;SDS011;47397;48.194;11.632;2023-07-31T05:37:19;4.53;;;2.90;;
61531;SDS011;47397;48.194;11.632;2023-07-31T05:38:20;4.03;;;2.75;;
61531;SDS011;47397;48.194;11.632;2023-07-31T05:39:20;6.00;;;3.00;;
61531;SDS011;47397;48.194;11.632;2023-07-31T05:40:21;5.00;;;2.83;;
61531;SDS011;47397;48.194;11.632;2023-07-31T05:41:21;4.53;;;2.60;;
61531;SDS011;47397;48.194;11.632;2023-07-31T05:42:21;4.78;;;2.85;;
61531;SDS011;47397;48.194;11.632;2023-07-31T05:43:22;6.80;;;2.95;;
61531;SDS011;47397;48.194;11.632;2023-07-31T05:44:22;5.32;;;3.00;;
61531;SDS011;47397;48.194;11.632;2023-07-31T05:45:24;6.55;;;2.70;;
61531;SDS011;47397;48.194;11.632;2023-07-31T05:46:25;4.40;;;2.97;;
61531;SDS011;47397;48.194;11.632;2023-07-31T05:47:25;6.10;;;2.97;;
61531;SDS011;47397;48.194;11.632;2023-07-31T05:48:26;5.93;;;2.58;;
61531;SDS011;47397;48.194;11.632;2023-07-31T05:49:26;4.22;;;2.67;;
61531;SDS011;47397;48.194;11.632;2023-07-31T05:50:27;5.32;;;2.63;;
61531;SDS011;47397;48.194;11.632;2023-07-31T05:51:27;4.72;;;2.65;;
61531;SDS011;47397;48.194;11.632;2023-07-31T05:52:27;5.03;;;2.55;;
61531;SDS011;47397;48.194;11.632;2023-07-31T05:53:28;5.50;;;2.35;;
61531;SDS011;47397;48.194;11.632;2023-07-31T05:54:28;4.38;;;2.17;;
61531;SDS011;47397;48.194;11.632;2023-07-31T05:55:29;4.57;;;2.58;;
61531;SDS011;47397;48.194;11.632;2023-07-31T05:56:29;4.90;;;2.70;;
61531;SDS011;47397;48.194;11.632;2023-07-31T05:57:29;4.80;;;2.28;;
61531;SDS011;47397;48.194;11.632;2023-07-31T05:58:30;5.20;;;2.60;;
61531;SDS011;47397;48.194;11.632;2023-07-31T05:59:30;5.03;;;2.55;;
61531;SDS011;47397;48.194;11.632;2023-07-31T06:00:32;5.40;;;2.50;;
61531;SDS011;47397;48.194;11.632;2023-07-31T06:01:32;4.38;;;2.50;;
61531;SDS011;47397;48.194;11.632;2023-07-31T06:02:33;5.22;;;2.67;;
61531;SDS011;47397;48.194;11.632;2023-07-31T06:03:33;4.68;;;2.50;;